sensor_id;sensor_type;location;lat;lon;timestamp;pressure;altitude;pressure_sealevel;temperature
45976;BMP280;31696;42.668;23.322;2024-03-23T00:54:54;94730.06;;;5.70
45976;BMP280;31696;42.668;23.322;2024-03-23T00:56:55;94738.34;;;5.63
45976;BMP280;31696;42.668;23.322;2024-03-23T00:58:55;94740.00;;;5.61
45976;BMP280;31696;42.668;23.322;2024-03-23T01:00:56;94733.03;;;5.74
45976;BMP280;31696;42.668;23.322;2024-03-23T01:02:56;94735.41;;;5.72
45976;BMP280;31696;42.668;23.322;2024-03-23T01:04:57;94730.44;;;5.74
45976;BMP280;31696;42.668;23.322;2024-03-23T01:06:57;94737.91;;;5.59
45976;BMP280;31696;42.668;23.322;2024-03-23T01:08:57;94726.69;;;5.57
45976;BMP280;31696;42.668;23.322;2024-03-23T01:10:58;94739.03;;;5.64
45976;BMP280;31696;42.668;23.322;2024-03-23T01:12:59;94727.66;;;5.54
45976;BMP280;31696;42.668;23.322;2024-03-23T01:14:59;94722.84;;;5.44
45976;BMP280;31696;42.668;23.322;2024-03-23T01:17:00;94723.50;;;5.51
45976;BMP280;31696;42.668;23.322;2024-03-23T01:19:00;94714.59;;;5.70
45976;BMP280;31696;42.668;23.322;2024-03-23T01:21:00;94721.16;;;5.71
45976;BMP280;31696;42.668;23.322;2024-03-23T01:23:01;94727.00;;;5.53
45976;BMP280;31696;42.668;23.322;2024-03-23T01:25:01;94734.63;;;5.40
45976;BMP280;31696;42.668;23.322;2024-03-23T01:27:02;94726.84;;;5.64
45976;BMP280;31696;42.668;23.322;2024-03-23T01:29:03;94726.22;;;5.58
45976;BMP280;31696;42.668;23.322;2024-03-23T01:31:03;94722.19;;;5.20
45976;BMP280;31696;42.668;23.322;2024-03-23T01:33:04;94720.84;;;5.37
45976;BMP280;31696;42.668;23.322;2024-03-23T01:35:04;94723.63;;;5.58
45976;BMP280;31696;42.668;23.322;2024-03-23T01:37:05;94729.22;;;5.62
45976;BMP280;31696;42.668;23.322;2024-03-23T01:39:05;94723.19;;;5.35
45976;BMP280;31696;42.668;23.322;2024-03-23T01:41:05;94724.47;;;5.48
45976;BMP280;31696;42.668;23.322;2024-03-23T01:43:06;94726.69;;;5.57
45976;BMP280;31696;42.668;23.322;2024-03-23T01:45:08;94732.25;;;5.61
45976;BMP280;31696;42.668;23.322;2024-03-23T01:47:09;94720.84;;;5.56
45976;BMP280;31696;42.668;23.322;2024-03-23T01:49:10;94731.16;;;5.56
45976;BMP280;31696;42.668;23.322;2024-03-23T01:51:10;94717.06;;;5.38
45976;BMP280;31696;42.668;23.322;2024-03-23T01:53:11;94729.03;;;5.36
45976;BMP280;31696;42.668;23.322;2024-03-23T01:55:11;94721.25;;;5.23
45976;BMP280;31696;42.668;23.322;2024-03-23T01:57:12;94723.91;;;5.12
45976;BMP280;31696;42.668;23.322;2024-03-23T01:59:14;94722.81;;;5.26
45976;BMP280;31696;42.668;23.322;2024-03-23T02:01:14;94722.13;;;5.25
45976;BMP280;31696;42.668;23.322;2024-03-23T02:03:24;94723.16;;;5.17
45976;BMP280;31696;42.668;23.322;2024-03-23T02:05:25;94727.84;;;5.13
45976;BMP280;31696;42.668;23.322;2024-03-23T02:07:25;94719.53;;;5.07
45976;BMP280;31696;42.668;23.322;2024-03-23T02:09:25;94728.84;;;5.10
45976;BMP280;31696;42.668;23.322;2024-03-23T02:11:26;94724.03;;;5.01
45976;BMP280;31696;42.668;23.322;2024-03-23T02:13:26;94729.31;;;4.84
45976;BMP280;31696;42.668;23.322;2024-03-23T02:15:27;94735.31;;;4.92
45976;BMP280;31696;42.668;23.322;2024-03-23T02:17:28;94727.81;;;4.94
45976;BMP280;31696;42.668;23.322;2024-03-23T02:19:29;94727.34;;;4.95
45976;BMP280;31696;42.668;23.322;2024-03-23T02:21:29;94730.09;;;4.73
45976;BMP280;31696;42.668;23.322;2024-03-23T02:23:32;94730.00;;;4.84
45976;BMP280;31696;42.668;23.322;2024-03-23T02:25:32;94729.91;;;4.71
45976;BMP280;31696;42.668;23.322;2024-03-23T02:27:33;94739.78;;;4.62
45976;BMP280;31696;42.668;23.322;2024-03-23T02:29:35;94734.47;;;4.84
45976;BMP280;31696;42.668;23.322;2024-03-23T02:31:36;94738.66;;;4.87
45976;BMP280;31696;42.668;23.322;2024-03-23T02:33:36;94739.72;;;4.67
45976;BMP280;31696;42.668;23.322;2024-03-23T02:35:38;94742.56;;;4.93
45976;BMP280;31696;42.668;23.322;2024-03-23T02:37:38;94731.31;;;4.96
45976;BMP280;31696;42.668;23.322;2024-03-23T02:39:38;94741.59;;;4.96
45976;BMP280;31696;42.668;23.322;2024-03-23T02:41:39;94735.50;;;5.00
45976;BMP280;31696;42.668;23.322;2024-03-23T02:43:39;94730.97;;;4.81
45976;BMP280;31696;42.668;23.322;2024-03-23T02:45:40;94726.41;;;4.93
45976;BMP280;31696;42.668;23.322;2024-03-23T02:47:40;94727.50;;;5.03
45976;BMP280;31696;42.668;23.322;2024-03-23T02:49:40;94730.97;;;4.81
45976;BMP280;31696;42.668;23.322;2024-03-23T02:51:41;94731.63;;;4.87
45976;BMP280;31696;42.668;23.322;2024-03-23T02:53:41;94727.09;;;4.93
45976;BMP280;31696;42.668;23.322;2024-03-23T02:55:42;94718.22;;;4.70
45976;BMP280;31696;42.668;23.322;2024-03-23T02:57:42;94728.00;;;4.42
45976;BMP280;31696;42.668;23.322;2024-03-23T02:59:42;94725.94;;;4.70
45976;BMP280;31696;42.668;23.322;2024-03-23T03:01:43;94718.16;;;4.76
45976;BMP280;31696;42.668;23.322;2024-03-23T03:03:43;94724.69;;;4.77
45976;BMP280;31696;42.668;23.322;2024-03-23T03:05:44;94722.06;;;4.82
45976;BMP280;31696;42.668;23.322;2024-03-23T03:07:45;94729.75;;;4.88
45976;BMP280;31696;42.668;23.322;2024-03-23T03:09:45;94720.16;;;4.88
45976;BMP280;31696;42.668;23.322;2024-03-23T03:11:45;94725.38;;;4.77
45976;BMP280;31696;42.668;23.322;2024-03-23T03:13:46;94723.06;;;4.74
45976;BMP280;31696;42.668;23.322;2024-03-23T03:15:46;94722.69;;;4.64
45976;BMP280;31696;42.668;23.322;2024-03-23T03:17:46;94724.41;;;4.56
45976;BMP280;31696;42.668;23.322;2024-03-23T03:19:47;94720.38;;;4.61
45976;BMP280;31696;42.668;23.322;2024-03-23T03:21:47;94729.00;;;4.63
45976;BMP280;31696;42.668;23.322;2024-03-23T03:23:48;94729.00;;;4.63
45976;BMP280;31696;42.668;23.322;2024-03-23T03:25:50;94728.75;;;4.67
45976;BMP280;31696;42.668;23.322;2024-03-23T03:27:50;94734.19;;;4.58
45976;BMP280;31696;42.668;23.322;2024-03-23T03:29:51;94733.66;;;4.70
45976;BMP280;31696;42.668;23.322;2024-03-23T03:31:51;94735.84;;;4.55
45976;BMP280;31696;42.668;23.322;2024-03-23T03:33:51;94725.03;;;4.32
45976;BMP280;31696;42.668;23.322;2024-03-23T03:35:52;94730.00;;;4.55
45976;BMP280;31696;42.668;23.322;2024-03-23T03:37:52;94730.72;;;4.55
45976;BMP280;31696;42.668;23.322;2024-03-23T03:39:53;94728.78;;;4.31
45976;BMP280;31696;42.668;23.322;2024-03-23T03:41:53;94727.41;;;4.30
45976;BMP280;31696;42.668;23.322;2024-03-23T03:43:53;94725.44;;;4.36
45976;BMP280;31696;42.668;23.322;2024-03-23T03:45:56;94730.56;;;4.42
45976;BMP280;31696;42.668;23.322;2024-03-23T03:47:56;94724.34;;;4.26
45976;BMP280;31696;42.668;23.322;2024-03-23T03:49:57;94724.38;;;4.21
45976;BMP280;31696;42.668;23.322;2024-03-23T03:51:57;94719.38;;;4.39
45976;BMP280;31696;42.668;23.322;2024-03-23T03:53:57;94731.34;;;4.31
45976;BMP280;31696;42.668;23.322;2024-03-23T03:56:01;94726.56;;;4.11
45976;BMP280;31696;42.668;23.322;2024-03-23T03:58:02;94731.38;;;4.26
45976;BMP280;31696;42.668;23.322;2024-03-23T04:00:02;94730.88;;;4.33
45976;BMP280;31696;42.668;23.322;2024-03-23T04:02:04;94730.66;;;4.31
45976;BMP280;31696;42.668;23.322;2024-03-23T04:04:05;94727.41;;;4.30
45976;BMP280;31696;42.668;23.322;2024-03-23T04:06:06;94731.66;;;4.17
45976;BMP280;31696;42.668;23.322;2024-03-23T04:08:07;94733.28;;;4.20
45976;BMP280;31696;42.668;23.322;2024-03-23T04:10:07;94728.66;;;4.13
45976;BMP280;31696;42.668;23.322;2024-03-23T04:12:08;94738.72;;;4.11
45976;BMP280;31696;42.668;23.322;2024-03-23T04:14:09;94737.53;;;4.12
45976;BMP280;31696;42.668;23.322;2024-03-23T04:16:09;94734.66;;;4.21
45976;BMP280;31696;42.668;23.322;2024-03-23T04:18:09;94737.03;;;4.19
45976;BMP280;31696;42.668;23.322;2024-03-23T04:20:10;94731.97;;;4.02
45976;BMP280;31696;42.668;23.322;2024-03-23T04:22:11;94742.28;;;3.96
45976;BMP280;31696;42.668;23.322;2024-03-23T04:24:11;94736.66;;;4.03
45976;BMP280;31696;42.668;23.322;2024-03-23T04:26:12;94737.50;;;4.17
45976;BMP280;31696;42.668;23.322;2024-03-23T04:28:12;94739.69;;;4.02
45976;BMP280;31696;42.668;23.322;2024-03-23T04:30:13;94744.19;;;3.90
45976;BMP280;31696;42.668;23.322;2024-03-23T04:32:14;94736.44;;;3.96
45976;BMP280;31696;42.668;23.322;2024-03-23T04:34:14;94736.28;;;3.88
45976;BMP280;31696;42.668;23.322;2024-03-23T04:36:14;94740.09;;;3.65
45976;BMP280;31696;42.668;23.322;2024-03-23T04:38:15;94735.84;;;3.73
45976;BMP280;31696;42.668;23.322;2024-03-23T04:40:16;94747.41;;;3.96
45976;BMP280;31696;42.668;23.322;2024-03-23T04:42:17;94751.63;;;3.94
45976;BMP280;31696;42.668;23.322;2024-03-23T04:44:17;94747.38;;;4.08
45976;BMP280;31696;42.668;23.322;2024-03-23T04:46:17;94752.97;;;4.06
45976;BMP280;31696;42.668;23.322;2024-03-23T04:48:20;94753.31;;;3.86
45976;BMP280;31696;42.668;23.322;2024-03-23T04:50:20;94743.66;;;4.03
45976;BMP280;31696;42.668;23.322;2024-03-23T04:52:21;94752.06;;;4.03
45976;BMP280;31696;42.668;23.322;2024-03-23T04:54:21;94759.06;;;4.09
45976;BMP280;31696;42.668;23.322;2024-03-23T04:56:23;94753.28;;;3.91
45976;BMP280;31696;42.668;23.322;2024-03-23T04:58:24;94745.69;;;3.69
45976;BMP280;31696;42.668;23.322;2024-03-23T05:00:25;94761.84;;;3.59
45976;BMP280;31696;42.668;23.322;2024-03-23T05:02:26;94758.00;;;3.76
45976;BMP280;31696;42.668;23.322;2024-03-23T05:04:27;94757.97;;;3.93
45976;BMP280;31696;42.668;23.322;2024-03-23T05:06:27;94761.19;;;3.99
45976;BMP280;31696;42.668;23.322;2024-03-23T05:08:28;94756.41;;;3.73
45976;BMP280;31696;42.668;23.322;2024-03-23T05:10:28;94761.66;;;3.97
45976;BMP280;31696;42.668;23.322;2024-03-23T05:12:29;94761.09;;;4.16
45976;BMP280;31696;42.668;23.322;2024-03-23T05:14:29;94757.78;;;4.26
45976;BMP280;31696;42.668;23.322;2024-03-23T05:16:29;94763.66;;;4.16
45976;BMP280;31696;42.668;23.322;2024-03-23T05:18:30;94754.75;;;4.28
45976;BMP280;31696;42.668;23.322;2024-03-23T05:20:30;94755.81;;;4.02
45976;BMP280;31696;42.668;23.322;2024-03-23T05:22:31;94741.22;;;4.22
45976;BMP280;31696;42.668;23.322;2024-03-23T05:24:31;94748.06;;;4.14
45976;BMP280;31696;42.668;23.322;2024-03-23T05:26:31;94746.13;;;4.25
45976;BMP280;31696;42.668;23.322;2024-03-23T05:28:34;94744.25;;;4.61
45976;BMP280;31696;42.668;23.322;2024-03-23T05:30:34;94737.06;;;4.48
45976;BMP280;31696;42.668;23.322;2024-03-23T05:32:34;94744.81;;;4.73
45976;BMP280;31696;42.668;23.322;2024-03-23T05:34:35;94746.06;;;4.66
45976;BMP280;31696;42.668;23.322;2024-03-23T05:36:35;94744.19;;;4.67
45976;BMP280;31696;42.668;23.322;2024-03-23T05:38:36;94746.84;;;5.10
45976;BMP280;31696;42.668;23.322;2024-03-23T05:40:36;94750.16;;;5.29
45976;BMP280;31696;42.668;23.322;2024-03-23T05:42:40;94746.53;;;4.94
45976;BMP280;31696;42.668;23.322;2024-03-23T05:44:40;94749.91;;;4.84
45976;BMP280;31696;42.668;23.322;2024-03-23T05:46:41;94752.63;;;4.91
45976;BMP280;31696;42.668;23.322;2024-03-23T05:48:41;94749.28;;;5.02
45976;BMP280;31696;42.668;23.322;2024-03-23T05:50:42;94743.88;;;5.49
45976;BMP280;31696;42.668;23.322;2024-03-23T05:52:43;94747.97;;;5.81
45976;BMP280;31696;42.668;23.322;2024-03-23T05:54:43;94746.00;;;5.87
45976;BMP280;31696;42.668;23.322;2024-03-23T05:56:44;94751.63;;;6.23
45976;BMP280;31696;42.668;23.322;2024-03-23T05:58:44;94744.81;;;5.88
45976;BMP280;31696;42.668;23.322;2024-03-23T06:00:45;94749.09;;;6.18
45976;BMP280;31696;42.668;23.322;2024-03-23T06:02:45;94742.44;;;6.09
45976;BMP280;31696;42.668;23.322;2024-03-23T06:04:46;94740.31;;;6.58
45976;BMP280;31696;42.668;23.322;2024-03-23T06:06:46;94744.63;;;7.08
45976;BMP280;31696;42.668;23.322;2024-03-23T06:08:47;94744.56;;;7.27
45976;BMP280;31696;42.668;23.322;2024-03-23T06:10:47;94739.47;;;7.48
45976;BMP280;31696;42.668;23.322;2024-03-23T06:12:47;94734.63;;;7.65
45976;BMP280;31696;42.668;23.322;2024-03-23T06:14:49;94739.78;;;7.65
45976;BMP280;31696;42.668;23.322;2024-03-23T06:16:49;94736.72;;;8.21
45976;BMP280;31696;42.668;23.322;2024-03-23T06:18:50;94733.47;;;8.69
45976;BMP280;31696;42.668;23.322;2024-03-23T06:20:50;94731.50;;;8.83
45976;BMP280;31696;42.668;23.322;2024-03-23T06:22:51;94730.44;;;8.78
45976;BMP280;31696;42.668;23.322;2024-03-23T06:24:51;94733.81;;;9.30
45976;BMP280;31696;42.668;23.322;2024-03-23T06:26:51;94730.84;;;9.99
45976;BMP280;31696;42.668;23.322;2024-03-23T06:28:52;94731.22;;;10.26
45976;BMP280;31696;42.668;23.322;2024-03-23T06:30:52;94721.03;;;10.06
45976;BMP280;31696;42.668;23.322;2024-03-23T06:32:52;94732.41;;;9.29
45976;BMP280;31696;42.668;23.322;2024-03-23T06:34:53;94739.81;;;9.68
45976;BMP280;31696;42.668;23.322;2024-03-23T06:36:53;94729.13;;;9.94
45976;BMP280;31696;42.668;23.322;2024-03-23T06:38:54;94737.09;;;10.49
45976;BMP280;31696;42.668;23.322;2024-03-23T06:40:54;94735.34;;;10.67
45976;BMP280;31696;42.668;23.322;2024-03-23T06:42:54;94729.84;;;10.18
45976;BMP280;31696;42.668;23.322;2024-03-23T06:44:55;94726.84;;;10.74
45976;BMP280;31696;42.668;23.322;2024-03-23T06:46:55;94733.94;;;10.66
45976;BMP280;31696;42.668;23.322;2024-03-23T06:48:56;94730.75;;;11.05
45976;BMP280;31696;42.668;23.322;2024-03-23T06:50:56;94730.63;;;10.88
45976;BMP280;31696;42.668;23.322;2024-03-23T06:52:57;94736.69;;;10.83
45976;BMP280;31696;42.668;23.322;2024-03-23T06:54:58;94727.78;;;11.49
45976;BMP280;31696;42.668;23.322;2024-03-23T06:56:58;94729.72;;;11.73
45976;BMP280;31696;42.668;23.322;2024-03-23T06:58:58;94733.91;;;11.76
45976;BMP280;31696;42.668;23.322;2024-03-23T07:00:59;94738.34;;;12.33
45976;BMP280;31696;42.668;23.322;2024-03-23T07:03:00;94732.94;;;12.55
45976;BMP280;31696;42.668;23.322;2024-03-23T07:05:00;94731.56;;;12.89
45976;BMP280;31696;42.668;23.322;2024-03-23T07:07:01;94733.22;;;13.64
45976;BMP280;31696;42.668;23.322;2024-03-23T07:09:04;94725.13;;;14.25
45976;BMP280;31696;42.668;23.322;2024-03-23T07:11:04;94720.75;;;14.47
45976;BMP280;31696;42.668;23.322;2024-03-23T07:13:05;94724.03;;;14.28
45976;BMP280;31696;42.668;23.322;2024-03-23T07:15:05;94718.31;;;14.49
45976;BMP280;31696;42.668;23.322;2024-03-23T07:17:06;94715.50;;;14.76
45976;BMP280;31696;42.668;23.322;2024-03-23T07:19:06;94712.50;;;14.89
45976;BMP280;31696;42.668;23.322;2024-03-23T07:21:06;94717.19;;;14.42
45976;BMP280;31696;42.668;23.322;2024-03-23T07:23:07;94709.09;;;15.27
45976;BMP280;31696;42.668;23.322;2024-03-23T07:25:07;94710.25;;;15.54
45976;BMP280;31696;42.668;23.322;2024-03-23T07:27:07;94715.16;;;15.69
45976;BMP280;31696;42.668;23.322;2024-03-23T07:29:10;94711.66;;;15.98
45976;BMP280;31696;42.668;23.322;2024-03-23T07:31:11;94697.31;;;16.41
45976;BMP280;31696;42.668;23.322;2024-03-23T07:33:12;94702.97;;;17.26
45976;BMP280;31696;42.668;23.322;2024-03-23T07:35:12;94698.59;;;16.84
45976;BMP280;31696;42.668;23.322;2024-03-23T07:37:12;94695.66;;;17.48
45976;BMP280;31696;42.668;23.322;2024-03-23T07:39:13;94700.59;;;17.19
45976;BMP280;31696;42.668;23.322;2024-03-23T07:41:19;94641.25;;;17.25
45976;BMP280;31696;42.668;23.322;2024-03-23T07:43:20;94703.69;;;17.50
45976;BMP280;31696;42.668;23.322;2024-03-23T07:45:20;94635.97;;;17.60
45976;BMP280;31696;42.668;23.322;2024-03-23T07:47:20;94634.56;;;17.71
45976;BMP280;31696;42.668;23.322;2024-03-23T07:49:21;94638.22;;;18.27
45976;BMP280;31696;42.668;23.322;2024-03-23T07:51:21;94654.31;;;18.08
45976;BMP280;31696;42.668;23.322;2024-03-23T07:53:22;94631.88;;;18.19
45976;BMP280;31696;42.668;23.322;2024-03-23T07:55:23;94637.44;;;18.00
45976;BMP280;31696;42.668;23.322;2024-03-23T07:57:23;94646.38;;;17.95
45976;BMP280;31696;42.668;23.322;2024-03-23T07:59:24;94656.63;;;17.42
45976;BMP280;31696;42.668;23.322;2024-03-23T08:01:25;94641.22;;;17.60
45976;BMP280;31696;42.668;23.322;2024-03-23T08:03:26;94642.72;;;17.05
45976;BMP280;31696;42.668;23.322;2024-03-23T08:05:26;94640.47;;;16.44
45976;BMP280;31696;42.668;23.322;2024-03-23T08:07:26;94637.56;;;17.42
45976;BMP280;31696;42.668;23.322;2024-03-23T08:09:27;94631.84;;;17.57
45976;BMP280;31696;42.668;23.322;2024-03-23T08:11:28;94631.25;;;18.32
45976;BMP280;31696;42.668;23.322;2024-03-23T08:13:29;94627.50;;;17.61
45976;BMP280;31696;42.668;23.322;2024-03-23T08:15:32;94640.56;;;17.85
45976;BMP280;31696;42.668;23.322;2024-03-23T08:17:36;94623.06;;;17.41
45976;BMP280;31696;42.668;23.322;2024-03-23T08:19:36;94620.84;;;16.33
45976;BMP280;31696;42.668;23.322;2024-03-23T08:21:36;94627.34;;;16.88
45976;BMP280;31696;42.668;23.322;2024-03-23T08:23:37;94668.78;;;15.82
45976;BMP280;31696;42.668;23.322;2024-03-23T08:25:40;94668.81;;;16.91
45976;BMP280;31696;42.668;23.322;2024-03-23T08:27:40;94668.34;;;17.76
45976;BMP280;31696;42.668;23.322;2024-03-23T08:29:41;94671.84;;;17.44
45976;BMP280;31696;42.668;23.322;2024-03-23T08:31:41;94670.69;;;17.95
45976;BMP280;31696;42.668;23.322;2024-03-23T08:33:42;94666.63;;;18.43
45976;BMP280;31696;42.668;23.322;2024-03-23T08:35:43;94664.91;;;18.86
45976;BMP280;31696;42.668;23.322;2024-03-23T08:37:52;94661.66;;;16.92
45976;BMP280;31696;42.668;23.322;2024-03-23T08:39:52;94656.50;;;16.82
45976;BMP280;31696;42.668;23.322;2024-03-23T08:41:53;94653.25;;;17.88
45976;BMP280;31696;42.668;23.322;2024-03-23T08:43:53;94649.25;;;18.12
45976;BMP280;31696;42.668;23.322;2024-03-23T08:45:53;94650.25;;;17.94
45976;BMP280;31696;42.668;23.322;2024-03-23T08:47:54;94653.91;;;17.17
45976;BMP280;31696;42.668;23.322;2024-03-23T08:49:54;94640.97;;;17.56
45976;BMP280;31696;42.668;23.322;2024-03-23T08:51:55;94644.78;;;18.01
45976;BMP280;31696;42.668;23.322;2024-03-23T08:53:55;94639.81;;;18.33
45976;BMP280;31696;42.668;23.322;2024-03-23T08:55:57;94633.09;;;18.04
45976;BMP280;31696;42.668;23.322;2024-03-23T08:57:57;94632.44;;;18.43
45976;BMP280;31696;42.668;23.322;2024-03-23T08:59:58;94637.63;;;18.15
45976;BMP280;31696;42.668;23.322;2024-03-23T09:01:58;94636.63;;;17.72
45976;BMP280;31696;42.668;23.322;2024-03-23T09:03:58;94621.28;;;17.32
45976;BMP280;31696;42.668;23.322;2024-03-23T09:05:59;94627.44;;;17.85
45976;BMP280;31696;42.668;23.322;2024-03-23T09:08:00;94620.66;;;17.68
45976;BMP280;31696;42.668;23.322;2024-03-23T09:10:01;94619.75;;;18.25
45976;BMP280;31696;42.668;23.322;2024-03-23T09:12:01;94614.47;;;17.04
45976;BMP280;31696;42.668;23.322;2024-03-23T09:14:01;94608.00;;;18.01
45976;BMP280;31696;42.668;23.322;2024-03-23T09:16:02;94605.63;;;16.64
45976;BMP280;31696;42.668;23.322;2024-03-23T09:18:03;94598.81;;;17.29
45976;BMP280;31696;42.668;23.322;2024-03-23T09:20:03;94607.13;;;17.85
45976;BMP280;31696;42.668;23.322;2024-03-23T09:22:04;94601.88;;;17.85
45976;BMP280;31696;42.668;23.322;2024-03-23T09:24:05;94599.91;;;17.60
45976;BMP280;31696;42.668;23.322;2024-03-23T09:26:06;94592.03;;;16.33
45976;BMP280;31696;42.668;23.322;2024-03-23T09:28:07;94584.22;;;16.79
45976;BMP280;31696;42.668;23.322;2024-03-23T09:30:11;94582.88;;;16.90
45976;BMP280;31696;42.668;23.322;2024-03-23T09:32:11;94586.25;;;17.27
45976;BMP280;31696;42.668;23.322;2024-03-23T09:34:11;94575.78;;;16.81
45976;BMP280;31696;42.668;23.322;2024-03-23T09:36:12;94568.94;;;16.87
45976;BMP280;31696;42.668;23.322;2024-03-23T09:38:12;94577.75;;;17.04
45976;BMP280;31696;42.668;23.322;2024-03-23T09:40:13;94572.53;;;16.36
45976;BMP280;31696;42.668;23.322;2024-03-23T09:42:13;94576.91;;;16.55
45976;BMP280;31696;42.668;23.322;2024-03-23T09:44:14;94569.13;;;16.45
45976;BMP280;31696;42.668;23.322;2024-03-23T09:46:15;94559.28;;;16.78
45976;BMP280;31696;42.668;23.322;2024-03-23T09:48:15;94559.91;;;16.44
45976;BMP280;31696;42.668;23.322;2024-03-23T09:50:16;94555.50;;;16.81
45976;BMP280;31696;42.668;23.322;2024-03-23T09:52:16;94551.41;;;16.78
45976;BMP280;31696;42.668;23.322;2024-03-23T09:54:17;94549.75;;;16.27
45976;BMP280;31696;42.668;23.322;2024-03-23T09:56:17;94548.56;;;16.63
45976;BMP280;31696;42.668;23.322;2024-03-23T09:58:18;94545.81;;;16.72
45976;BMP280;31696;42.668;23.322;2024-03-23T10:00:18;94552.09;;;16.79
45976;BMP280;31696;42.668;23.322;2024-03-23T10:02:19;94537.63;;;16.10
45976;BMP280;31696;42.668;23.322;2024-03-23T10:04:38;94526.75;;;16.49
45976;BMP280;31696;42.668;23.322;2024-03-23T10:06:39;94535.09;;;16.68
45976;BMP280;31696;42.668;23.322;2024-03-23T10:08:39;94536.00;;;16.84
45976;BMP280;31696;42.668;23.322;2024-03-23T10:10:43;94524.25;;;16.51
45976;BMP280;31696;42.668;23.322;2024-03-23T10:12:44;94514.94;;;15.70
45976;BMP280;31696;42.668;23.322;2024-03-23T10:14:45;94513.50;;;16.12
45976;BMP280;31696;42.668;23.322;2024-03-23T10:16:46;94516.75;;;16.68
45976;BMP280;31696;42.668;23.322;2024-03-23T10:18:47;94520.94;;;16.27
45976;BMP280;31696;42.668;23.322;2024-03-23T10:20:51;94508.31;;;16.58
45976;BMP280;31696;42.668;23.322;2024-03-23T10:22:52;94510.19;;;16.11
45976;BMP280;31696;42.668;23.322;2024-03-23T10:24:52;94506.47;;;16.26
45976;BMP280;31696;42.668;23.322;2024-03-23T10:26:55;94502.66;;;16.06
45976;BMP280;31696;42.668;23.322;2024-03-23T10:28:56;94498.16;;;16.41
45976;BMP280;31696;42.668;23.322;2024-03-23T10:31:17;94495.66;;;16.31
45976;BMP280;31696;42.668;23.322;2024-03-23T10:33:19;94491.44;;;16.61
45976;BMP280;31696;42.668;23.322;2024-03-23T10:35:21;94486.44;;;16.42
45976;BMP280;31696;42.668;23.322;2024-03-23T10:37:24;94478.09;;;16.11
45976;BMP280;31696;42.668;23.322;2024-03-23T10:39:24;94478.19;;;16.13
45976;BMP280;31696;42.668;23.322;2024-03-23T10:41:28;94478.19;;;16.24
45976;BMP280;31696;42.668;23.322;2024-03-23T10:43:31;94466.03;;;15.73
45976;BMP280;31696;42.668;23.322;2024-03-23T10:45:33;94461.09;;;16.00
45976;BMP280;31696;42.668;23.322;2024-03-23T10:47:36;94461.81;;;16.12
45976;BMP280;31696;42.668;23.322;2024-03-23T10:49:37;94451.63;;;15.95
45976;BMP280;31696;42.668;23.322;2024-03-23T10:51:37;94452.41;;;15.98
45976;BMP280;31696;42.668;23.322;2024-03-23T10:53:38;94448.97;;;16.28
45976;BMP280;31696;42.668;23.322;2024-03-23T10:55:38;94446.91;;;16.38
45976;BMP280;31696;42.668;23.322;2024-03-23T10:57:41;94438.09;;;16.10
45976;BMP280;31696;42.668;23.322;2024-03-23T10:59:42;94435.09;;;15.93
45976;BMP280;31696;42.668;23.322;2024-03-23T11:01:53;94428.50;;;16.03
45976;BMP280;31696;42.668;23.322;2024-03-23T11:03:54;94421.91;;;15.91
45976;BMP280;31696;42.668;23.322;2024-03-23T11:05:54;94419.78;;;16.10
45976;BMP280;31696;42.668;23.322;2024-03-23T11:07:54;94413.06;;;16.42
45976;BMP280;31696;42.668;23.322;2024-03-23T11:09:55;94412.38;;;16.30
45976;BMP280;31696;42.668;23.322;2024-03-23T11:11:56;94404.84;;;16.36
45976;BMP280;31696;42.668;23.322;2024-03-23T11:13:56;94407.13;;;16.30
45976;BMP280;31696;42.668;23.322;2024-03-23T11:15:56;94407.13;;;16.30
45976;BMP280;31696;42.668;23.322;2024-03-23T11:18:12;94397.56;;;16.46
45976;BMP280;31696;42.668;23.322;2024-03-23T11:20:20;94388.19;;;16.66
45976;BMP280;31696;42.668;23.322;2024-03-23T11:22:49;94384.78;;;16.64
45976;BMP280;31696;42.668;23.322;2024-03-23T11:24:51;94382.31;;;16.31
45976;BMP280;31696;42.668;23.322;2024-03-23T11:26:52;94387.53;;;16.08
45976;BMP280;31696;42.668;23.322;2024-03-23T11:29:08;94381.59;;;16.19
45976;BMP280;31696;42.668;23.322;2024-03-23T11:31:09;94380.59;;;16.35
45976;BMP280;31696;42.668;23.322;2024-03-23T11:33:09;94378.22;;;16.16
45976;BMP280;31696;42.668;23.322;2024-03-23T11:35:10;94375.13;;;16.08
45976;BMP280;31696;42.668;23.322;2024-03-23T11:37:10;94372.63;;;15.99
45976;BMP280;31696;42.668;23.322;2024-03-23T11:39:17;94357.94;;;15.94
45976;BMP280;31696;42.668;23.322;2024-03-23T11:41:18;94361.34;;;16.19
45976;BMP280;31696;42.668;23.322;2024-03-23T11:43:19;94352.31;;;15.64
45976;BMP280;31696;42.668;23.322;2024-03-23T11:45:19;94349.19;;;16.01
45976;BMP280;31696;42.668;23.322;2024-03-23T11:47:20;94341.56;;;16.28
45976;BMP280;31696;42.668;23.322;2024-03-23T11:49:27;94340.25;;;16.29
45976;BMP280;31696;42.668;23.322;2024-03-23T11:51:28;94347.00;;;16.32
45976;BMP280;31696;42.668;23.322;2024-03-23T11:53:29;94342.19;;;16.40
45976;BMP280;31696;42.668;23.322;2024-03-23T11:55:30;94336.38;;;16.53
45976;BMP280;31696;42.668;23.322;2024-03-23T11:57:30;94323.63;;;16.36
45976;BMP280;31696;42.668;23.322;2024-03-23T11:59:31;94315.97;;;16.40
45976;BMP280;31696;42.668;23.322;2024-03-23T12:01:32;94317.78;;;16.49
45976;BMP280;31696;42.668;23.322;2024-03-23T12:03:32;94319.69;;;16.60
45976;BMP280;31696;42.668;23.322;2024-03-23T12:05:34;94307.59;;;16.67
45976;BMP280;31696;42.668;23.322;2024-03-23T12:07:35;94307.97;;;16.61
45976;BMP280;31696;42.668;23.322;2024-03-23T12:09:35;94301.81;;;16.57
45976;BMP280;31696;42.668;23.322;2024-03-23T12:11:35;94294.69;;;16.71
45976;BMP280;31696;42.668;23.322;2024-03-23T12:13:36;94295.56;;;16.87
45976;BMP280;31696;42.668;23.322;2024-03-23T12:15:36;94292.47;;;16.90
45976;BMP280;31696;42.668;23.322;2024-03-23T12:17:37;94282.69;;;16.54
45976;BMP280;31696;42.668;23.322;2024-03-23T12:19:37;94286.25;;;16.47
45976;BMP280;31696;42.668;23.322;2024-03-23T12:21:38;94283.44;;;16.43
45976;BMP280;31696;42.668;23.322;2024-03-23T12:23:39;94282.97;;;16.35
45976;BMP280;31696;42.668;23.322;2024-03-23T12:25:39;94276.41;;;16.59